Time;durP1;ratioP1;P1;durP2;ratioP2;P2;SDS_P1;SDS_P2;PMS_P1;PMS_P2;Temp;Humidity;BMP_temperature;BMP_pressure;BME280_temperature;BME280_humidity;BME280_pressure;Samples;Min_cycle;Max_cycle;Signal;HPM_P1;HPM_P2
2021/05/25 00:01:09;;;;;;;;;;;11.70;92.80;;;;;;5045558;28;20004;-84
2021/05/25 00:03:35;;;;;;;;;;;11.80;92.90;;;;;;5045154;28;19913;-84
2021/05/25 00:06:00;;;;;;;;;;;11.80;93.10;;;;;;5046530;27;19909;-84
2021/05/25 00:08:26;;;;;;;;;;;11.70;93.10;;;;;;5046266;28;20318;-84
2021/05/25 00:10:51;;;;;;;;;;;11.80;92.90;;;;;;5045762;27;19969;-84
2021/05/25 00:13:17;;;;;;;;;;;11.70;93.10;;;;;;5046638;28;20289;-84
2021/05/25 00:15:42;;;;;;;;;;;11.70;93.20;;;;;;5044717;27;20012;-84
2021/05/25 00:18:08;;;;;;;;;;;11.70;93.00;;;;;;5044748;27;19932;-84
2021/05/25 00:20:33;;;;;;;;;;;11.70;93.10;;;;;;5044017;28;19909;-84
2021/05/25 00:22:59;;;;;;;;;;;11.60;93.10;;;;;;5044460;27;20277;-84
2021/05/25 00:25:24;;;;;;;;;;;11.70;93.00;;;;;;5044397;28;19917;-84
2021/05/25 00:27:52;;;;;;;;;;;11.70;93.20;;;;;;5044332;27;20049;-84
2021/05/25 00:30:19;;;;;;;;;;;11.70;93.00;;;;;;5043728;28;20370;-84
2021/05/25 00:32:45;;;;;;;;;;;11.60;93.00;;;;;;5043745;28;20388;-83
2021/05/25 00:35:12;;;;;;;;;;;11.70;93.20;;;;;;5036681;28;19909;-84
2021/05/25 00:37:37;;;;;;;;;;;11.70;93.30;;;;;;5031896;28;19909;-84
2021/05/25 00:40:04;;;;;;;;;;;11.60;93.00;;;;;;5030624;28;20389;-84
2021/05/25 00:42:29;;;;;;;;;;;11.70;93.30;;;;;;5032069;28;19909;-84
2021/05/25 00:44:55;;;;;;;;;;;11.60;93.00;;;;;;5032812;28;19915;-84
2021/05/25 00:47:28;;;;;;;;;;;11.60;92.90;;;;;;5034051;28;20174;-83
2021/05/25 00:49:54;;;;;;;;;;;11.60;93.00;;;;;;5033177;28;20323;-84
2021/05/25 00:52:20;;;;;;;;;;;11.60;93.20;;;;;;5032250;28;19961;-84
2021/05/25 00:54:45;;;;;;;;;;;11.50;93.10;;;;;;5034046;28;20011;-84
2021/05/25 00:57:11;;;;;;;;;;;11.60;93.30;;;;;;5031807;28;19913;-83
2021/05/25 00:59:37;;;;;;;;;;;11.50;93.20;;;;;;5032867;28;19909;-83
2021/05/25 01:02:03;;;;;;;;;;;11.50;93.30;;;;;;5033527;28;20372;-84
2021/05/25 01:04:28;;;;;;;;;;;11.50;93.30;;;;;;5032283;28;19968;-84
2021/05/25 01:06:54;;;;;;;;;;;11.50;93.50;;;;;;5031777;28;20262;-86
2021/05/25 01:09:19;;;;;;;;;;;11.50;93.30;;;;;;5032850;28;19957;-85
2021/05/25 01:11:46;;;;;;;;;;;11.50;93.30;;;;;;5032811;28;20346;-84
2021/05/25 01:14:12;;;;;;;;;;;11.40;93.50;;;;;;5032246;28;20369;-84
2021/05/25 01:16:37;;;;;;;;;;;11.40;93.40;;;;;;5032023;28;19988;-83
2021/05/25 01:19:03;;;;;;;;;;;11.40;93.50;;;;;;5031255;28;19986;-83
2021/05/25 01:21:29;;;;;;;;;;;11.40;93.50;;;;;;5031901;28;20011;-84
2021/05/25 01:23:55;;;;;;;;;;;11.40;93.50;;;;;;5033356;28;19997;-84
2021/05/25 01:26:20;;;;;;;;;;;11.40;93.30;;;;;;5031638;28;20323;-85
2021/05/25 01:28:47;;;;;;;;;;;11.40;93.40;;;;;;5033382;28;19909;-84
2021/05/25 01:31:13;;;;;;;;;;;11.30;93.40;;;;;;5032716;28;19910;-86
2021/05/25 01:33:39;;;;;;;;;;;11.30;93.40;;;;;;5033454;28;20008;-84
2021/05/25 01:36:05;;;;;;;;;;;11.30;93.40;;;;;;5031637;28;19935;-83
2021/05/25 01:38:31;;;;;;;;;;;11.30;93.50;;;;;;5031422;28;19909;-84
2021/05/25 01:40:58;;;;;;;;;;;11.30;93.40;;;;;;5031110;28;19909;-85
2021/05/25 01:43:24;;;;;;;;;;;11.30;93.40;;;;;;5031207;28;19913;-84
2021/05/25 01:45:50;;;;;;;;;;;11.30;93.80;;;;;;5031196;28;19909;-83
2021/05/25 01:48:16;;;;;;;;;;;11.20;93.30;;;;;;5030846;28;19909;-84
2021/05/25 01:50:42;;;;;;;;;;;11.20;93.50;;;;;;5032715;28;19909;-84
2021/05/25 01:53:11;;;;;;;;;;;11.20;93.40;;;;;;5031537;28;19909;-84
2021/05/25 01:55:36;;;;;;;;;;;11.30;93.20;;;;;;5031510;28;20384;-84
2021/05/25 01:58:06;;;;;;;;;;;11.20;93.40;;;;;;5032506;28;19910;-84
2021/05/25 02:00:32;;;;;;;;;;;11.20;93.30;;;;;;5031478;28;19916;-84
2021/05/25 02:02:58;;;;;;;;;;;11.10;93.70;;;;;;5032406;28;19917;-84
2021/05/25 02:05:24;;;;;;;;;;;11.10;93.60;;;;;;5031468;28;19916;-84
2021/05/25 02:07:51;;;;;;;;;;;11.10;93.60;;;;;;5031992;28;19916;-84
2021/05/25 02:10:24;;;;;;;;;;;11.10;93.40;;;;;;5032059;28;19917;-84
2021/05/25 02:12:50;;;;;;;;;;;11.10;93.40;;;;;;5030856;28;19992;-83
2021/05/25 02:15:16;;;;;;;;;;;11.00;93.30;;;;;;5032606;28;20393;-84
2021/05/25 02:17:42;;;;;;;;;;;11.10;93.30;;;;;;5031052;28;20410;-84
2021/05/25 02:20:08;;;;;;;;;;;11.10;93.10;;;;;;5030236;28;20000;-85
2021/05/25 02:22:34;;;;;;;;;;;11.00;93.40;;;;;;5029585;28;19913;-85
2021/05/25 02:24:59;;;;;;;;;;;10.90;93.30;;;;;;5029974;28;20391;-84
2021/05/25 02:27:25;;;;;;;;;;;10.90;93.30;;;;;;5030934;28;19910;-84
2021/05/25 02:29:50;;;;;;;;;;;11.00;93.30;;;;;;5030463;28;19961;-84
2021/05/25 02:32:15;;;;;;;;;;;10.90;93.10;;;;;;5031864;28;20281;-84
2021/05/25 02:34:41;;;;;;;;;;;10.90;93.10;;;;;;5030866;28;20163;-84
2021/05/25 02:37:06;;;;;;;;;;;10.80;93.30;;;;;;5031610;28;20359;-84
2021/05/25 02:39:32;;;;;;;;;;;10.80;92.90;;;;;;5030683;28;19909;-86
2021/05/25 02:41:57;;;;;;;;;;;10.90;93.00;;;;;;5030148;28;19914;-84
2021/05/25 02:44:23;;;;;;;;;;;10.90;93.00;;;;;;5030331;28;20017;-84
2021/05/25 02:46:48;;;;;;;;;;;10.90;92.90;;;;;;5030474;28;19941;-84
2021/05/25 02:49:14;;;;;;;;;;;10.90;93.00;;;;;;5030248;28;20051;-83
2021/05/25 02:51:39;;;;;;;;;;;11.00;92.90;;;;;;5030057;28;19909;-83
2021/05/25 02:54:05;;;;;;;;;;;11.00;92.90;;;;;;5031985;28;19909;-84
2021/05/25 02:56:30;;;;;;;;;;;11.00;92.90;;;;;;5031085;28;20003;-84
2021/05/25 02:58:56;;;;;;;;;;;10.90;92.90;;;;;;5029801;28;20008;-83
2021/05/25 03:01:22;;;;;;;;;;;10.90;93.00;;;;;;5030194;28;19952;-83
2021/05/25 03:03:48;;;;;;;;;;;10.90;93.00;;;;;;5031841;28;19940;-83
2021/05/25 03:06:13;;;;;;;;;;;10.90;92.90;;;;;;5031158;28;19962;-84
2021/05/25 03:08:39;;;;;;;;;;;10.80;93.10;;;;;;5030522;28;20000;-85
2021/05/25 03:11:04;;;;;;;;;;;10.90;93.00;;;;;;5029303;28;19915;-83
2021/05/25 03:13:30;;;;;;;;;;;10.90;93.00;;;;;;5029983;28;19913;-84
2021/05/25 03:15:55;;;;;;;;;;;10.90;93.00;;;;;;5030185;28;19910;-84
2021/05/25 03:18:21;;;;;;;;;;;10.90;93.10;;;;;;5030586;28;20283;-86
2021/05/25 03:20:49;;;;;;;;;;;10.80;93.00;;;;;;5029531;28;20301;-84
2021/05/25 03:23:15;;;;;;;;;;;10.80;93.00;;;;;;5029987;28;19948;-83
2021/05/25 03:25:42;;;;;;;;;;;10.80;93.00;;;;;;5030884;28;19916;-84
2021/05/25 03:28:08;;;;;;;;;;;10.80;93.10;;;;;;5032506;28;19909;-85
2021/05/25 03:30:33;;;;;;;;;;;10.80;93.20;;;;;;5030085;28;19940;-84
2021/05/25 03:32:59;;;;;;;;;;;10.80;92.90;;;;;;5030214;28;19917;-83
2021/05/25 03:35:25;;;;;;;;;;;10.70;93.10;;;;;;5031597;28;20342;-84
2021/05/25 03:37:51;;;;;;;;;;;10.80;93.00;;;;;;5030135;28;19909;-84
2021/05/25 03:40:17;;;;;;;;;;;10.80;92.80;;;;;;5029002;28;20263;-83
2021/05/25 03:42:44;;;;;;;;;;;10.80;92.90;;;;;;5031359;28;20012;-84
2021/05/25 03:45:09;;;;;;;;;;;10.80;92.80;;;;;;5029706;28;19916;-84
2021/05/25 03:47:35;;;;;;;;;;;10.70;92.90;;;;;;5031844;28;19909;-84
2021/05/25 03:50:07;;;;;;;;;;;10.80;92.80;;;;;;5029334;28;19917;-84
2021/05/25 03:52:34;;;;;;;;;;;10.70;92.90;;;;;;5030159;28;19909;-84
2021/05/25 03:55:01;;;;;;;;;;;10.70;93.00;;;;;;5029465;28;20304;-84
2021/05/25 03:59:52;;;;;;;;;;;10.80;92.90;;;;;;5030940;28;19910;-85
2021/05/25 04:02:17;;;;;;;;;;;10.70;93.00;;;;;;5031462;28;19913;-84
2021/05/25 04:04:43;;;;;;;;;;;10.70;93.20;;;;;;5030774;28;20309;-83
2021/05/25 04:07:08;;;;;;;;;;;10.70;93.00;;;;;;5031046;28;20385;-84
2021/05/25 04:09:34;;;;;;;;;;;10.60;93.20;;;;;;5029985;28;19909;-86
2021/05/25 04:11:59;;;;;;;;;;;10.70;93.20;;;;;;5034515;28;20381;-83
2021/05/25 04:14:25;;;;;;;;;;;10.80;93.10;;;;;;5034124;28;20397;-84
2021/05/25 04:16:51;;;;;;;;;;;10.80;93.30;;;;;;5034774;28;20358;-84
2021/05/25 04:19:16;;;;;;;;;;;10.90;93.10;;;;;;5034048;28;20030;-84
2021/05/25 04:21:42;;;;;;;;;;;10.80;93.10;;;;;;5032916;28;19952;-84
2021/05/25 04:24:07;;;;;;;;;;;10.90;93.20;;;;;;5032913;28;19917;-84
2021/05/25 04:26:33;;;;;;;;;;;10.80;93.20;;;;;;5034737;28;20319;-84
2021/05/25 04:28:58;;;;;;;;;;;10.80;93.20;;;;;;5032672;28;20434;-85
2021/05/25 04:31:24;;;;;;;;;;;10.80;93.30;;;;;;5033370;28;20301;-84
2021/05/25 04:33:50;;;;;;;;;;;10.80;93.50;;;;;;5034619;28;19910;-84
2021/05/25 04:36:19;;;;;;;;;;;10.80;93.60;;;;;;5032989;28;19957;-84
2021/05/25 04:38:44;;;;;;;;;;;10.80;93.60;;;;;;5034185;28;19914;-84
2021/05/25 04:41:10;;;;;;;;;;;10.80;93.70;;;;;;5032693;28;19951;-84
2021/05/25 04:43:35;;;;;;;;;;;10.90;93.60;;;;;;5033231;28;19913;-84
2021/05/25 04:46:01;;;;;;;;;;;10.80;93.60;;;;;;5034197;28;19909;-86
2021/05/25 04:48:27;;;;;;;;;;;10.80;93.70;;;;;;5032526;28;19913;-84
2021/05/25 04:50:52;;;;;;;;;;;10.80;93.70;;;;;;5032071;28;19909;-84
2021/05/25 04:53:18;;;;;;;;;;;10.80;93.90;;;;;;5032080;28;19913;-84
2021/05/25 04:55:43;;;;;;;;;;;10.80;94.10;;;;;;5032611;28;19913;-86
2021/05/25 04:58:09;;;;;;;;;;;10.80;94.00;;;;;;5033725;28;19909;-84
2021/05/25 05:00:35;;;;;;;;;;;10.80;94.10;;;;;;5033005;28;19952;-84
2021/05/25 05:03:10;;;;;;;;;;;10.80;94.10;;;;;;5035023;28;19987;-86
2021/05/25 05:05:42;;;;;;;;;;;10.90;94.20;;;;;;5016461;28;19920;-84
2021/05/25 05:08:14;;;;;;;;;;;10.90;94.00;;;;;;5032980;28;19941;-85
2021/05/25 05:10:46;;;;;;;;;;;10.90;94.10;;;;;;5032640;28;20365;-84
2021/05/25 05:13:12;;;;;;;;;;;10.90;94.20;;;;;;5033136;28;20281;-84
2021/05/25 05:15:40;;;;;;;;;;;10.80;94.10;;;;;;5016184;28;19953;-85
2021/05/25 05:18:05;;;;;;;;;;;10.90;94.30;;;;;;5016286;28;19978;-84
2021/05/25 05:20:31;;;;;;;;;;;10.90;94.20;;;;;;5032946;28;20290;-85
2021/05/25 05:22:56;;;;;;;;;;;10.80;94.40;;;;;;5033124;28;19925;-84
2021/05/25 05:25:22;;;;;;;;;;;10.90;94.30;;;;;;5034724;28;20371;-86
2021/05/25 05:27:47;;;;;;;;;;;10.80;94.40;;;;;;5033795;28;20056;-84
2021/05/25 05:30:13;;;;;;;;;;;10.90;94.40;;;;;;5032907;28;19913;-84
2021/05/25 05:32:42;;;;;;;;;;;10.90;94.50;;;;;;5031965;28;20373;-84
2021/05/25 05:35:09;;;;;;;;;;;10.80;94.60;;;;;;5032863;28;19916;-83
2021/05/25 05:37:35;;;;;;;;;;;10.80;94.60;;;;;;5031944;28;20327;-85
2021/05/25 05:40:02;;;;;;;;;;;10.90;94.70;;;;;;5030115;28;19962;-85
2021/05/25 05:42:27;;;;;;;;;;;10.90;94.70;;;;;;5031393;28;19951;-85
2021/05/25 05:44:53;;;;;;;;;;;10.80;95.10;;;;;;5031467;28;19913;-85
2021/05/25 05:47:19;;;;;;;;;;;10.90;95.10;;;;;;5030191;28;19947;-85
2021/05/25 05:49:44;;;;;;;;;;;10.80;95.30;;;;;;5029470;28;19913;-85
2021/05/25 05:52:10;;;;;;;;;;;10.90;95.30;;;;;;5031312;28;19934;-85
2021/05/25 05:54:35;;;;;;;;;;;10.90;95.40;;;;;;5030088;28;20262;-85
2021/05/25 05:57:01;;;;;;;;;;;10.80;95.60;;;;;;5029957;28;19910;-85
2021/05/25 05:59:26;;;;;;;;;;;10.80;95.60;;;;;;5029177;28;19909;-85
2021/05/25 06:01:52;;;;;;;;;;;10.80;95.90;;;;;;5029302;28;20385;-85
2021/05/25 06:04:17;;;;;;;;;;;10.80;95.70;;;;;;5029313;28;19913;-84
2021/05/25 06:06:43;;;;;;;;;;;10.80;96.00;;;;;;5030353;28;20362;-84
2021/05/25 06:09:08;;;;;;;;;;;10.80;96.00;;;;;;5030618;28;19921;-85
2021/05/25 06:11:34;;;;;;;;;;;10.90;96.20;;;;;;5029967;28;19913;-85
2021/05/25 06:13:59;;;;;;;;;;;10.80;96.20;;;;;;5031222;28;19913;-83
2021/05/25 06:16:25;;;;;;;;;;;10.90;96.30;;;;;;5030251;28;19982;-83
2021/05/25 06:18:50;;;;;;;;;;;10.80;96.40;;;;;;5029746;28;19909;-84
2021/05/25 06:21:16;;;;;;;;;;;10.90;96.20;;;;;;5031055;28;19913;-83
2021/05/25 06:23:41;;;;;;;;;;;10.90;96.20;;;;;;5031140;28;19917;-84
2021/05/25 06:26:07;;;;;;;;;;;11.00;96.10;;;;;;5029710;28;19909;-84
2021/05/25 06:28:33;;;;;;;;;;;10.90;96.00;;;;;;5029650;28;19909;-84
2021/05/25 06:30:59;;;;;;;;;;;11.00;96.10;;;;;;5029817;28;19917;-82
2021/05/25 06:33:24;;;;;;;;;;;11.00;96.00;;;;;;5031744;28;19964;-83
2021/05/25 06:35:50;;;;;;;;;;;11.00;95.80;;;;;;5031293;28;19909;-84
2021/05/25 06:38:16;;;;;;;;;;;11.00;95.70;;;;;;5029792;28;19909;-83
2021/05/25 06:40:42;;;;;;;;;;;11.00;96.20;;;;;;5030297;28;19909;-84
2021/05/25 06:43:08;;;;;;;;;;;10.90;96.40;;;;;;5029651;28;19913;-83
2021/05/25 06:45:33;;;;;;;;;;;10.90;96.90;;;;;;5029647;28;20409;-83
2021/05/25 06:47:59;;;;;;;;;;;10.90;97.30;;;;;;5030720;28;20285;-84
2021/05/25 06:50:24;;;;;;;;;;;10.80;97.50;;;;;;5029226;28;19965;-83
2021/05/25 06:52:50;;;;;;;;;;;10.60;97.30;;;;;;5031185;28;19956;-85
2021/05/25 06:55:15;;;;;;;;;;;10.40;98.20;;;;;;5028698;28;19962;-84
2021/05/25 06:57:41;;;;;;;;;;;10.30;97.90;;;;;;5028770;28;20297;-84
2021/05/25 07:00:08;;;;;;;;;;;10.30;98.30;;;;;;5029553;28;19978;-83
2021/05/25 07:02:34;;;;;;;;;;;10.30;98.30;;;;;;5028426;28;19909;-84
2021/05/25 07:04:59;;;;;;;;;;;10.40;98.30;;;;;;5029964;28;19913;-84
2021/05/25 07:07:25;;;;;;;;;;;10.40;98.60;;;;;;5028678;28;20281;-83
2021/05/25 07:09:50;;;;;;;;;;;10.40;98.00;;;;;;5028323;28;19951;-83
2021/05/25 07:12:16;;;;;;;;;;;10.40;98.30;;;;;;5028290;28;20004;-83
2021/05/25 07:14:42;;;;;;;;;;;10.30;97.80;;;;;;5028535;28;19909;-84
2021/05/25 07:17:07;;;;;;;;;;;10.40;98.30;;;;;;5028507;28;19909;-83
2021/05/25 07:19:33;;;;;;;;;;;10.40;97.60;;;;;;5029243;28;19909;-83
2021/05/25 07:21:59;;;;;;;;;;;10.40;97.70;;;;;;5029463;28;20021;-84
2021/05/25 07:24:25;;;;;;;;;;;10.50;97.80;;;;;;5029672;28;19974;-83
2021/05/25 07:26:50;;;;;;;;;;;10.50;97.50;;;;;;5028577;28;19919;-84
2021/05/25 07:29:16;;;;;;;;;;;10.50;97.30;;;;;;5029237;28;20020;-85
2021/05/25 07:31:41;;;;;;;;;;;10.50;97.30;;;;;;5029730;28;19954;-83
2021/05/25 07:34:07;;;;;;;;;;;10.50;97.80;;;;;;5029048;28;19910;-84
2021/05/25 07:36:32;;;;;;;;;;;10.50;97.40;;;;;;5030628;28;19909;-86
2021/05/25 07:38:58;;;;;;;;;;;10.60;97.70;;;;;;5027870;28;19913;-83
2021/05/25 07:41:24;;;;;;;;;;;10.60;97.60;;;;;;5029774;28;19915;-84
2021/05/25 07:43:49;;;;;;;;;;;10.60;97.60;;;;;;5028269;28;19917;-83
2021/05/25 07:46:17;;;;;;;;;;;10.70;97.50;;;;;;5031308;28;19956;-84
2021/05/25 07:48:42;;;;;;;;;;;10.70;97.70;;;;;;5031951;28;19944;-83
2021/05/25 07:51:08;;;;;;;;;;;10.70;97.30;;;;;;5031594;28;19966;-84
2021/05/25 07:53:33;;;;;;;;;;;10.70;97.00;;;;;;5031604;28;20316;-83
2021/05/25 07:55:59;;;;;;;;;;;10.80;97.10;;;;;;5031636;28;19909;-83
2021/05/25 07:58:24;;;;;;;;;;;10.70;96.90;;;;;;5031464;28;19909;-83
2021/05/25 08:00:50;;;;;;;;;;;10.80;97.20;;;;;;5031248;28;19915;-83
2021/05/25 08:03:16;;;;;;;;;;;10.90;97.30;;;;;;5031309;28;19914;-83
2021/05/25 08:05:42;;;;;;;;;;;10.90;96.80;;;;;;5032655;28;20426;-83
2021/05/25 08:08:08;;;;;;;;;;;10.90;95.90;;;;;;5031432;28;19927;-83
2021/05/25 08:10:34;;;;;;;;;;;10.90;96.20;;;;;;5030652;28;19909;-84
2021/05/25 08:13:00;;;;;;;;;;;10.90;96.40;;;;;;5031137;28;20034;-84
2021/05/25 08:15:26;;;;;;;;;;;10.90;96.10;;;;;;5031461;28;19955;-83
2021/05/25 08:20:21;;;;;;;;;;;10.80;95.90;;;;;;5031791;28;19909;-83
2021/05/25 08:22:50;;;;;;;;;;;10.80;95.70;;;;;;5031976;28;20335;-84
2021/05/25 08:25:17;;;;;;;;;;;10.80;95.60;;;;;;5031462;28;19909;-82
2021/05/25 08:27:46;;;;;;;;;;;10.80;96.10;;;;;;5031248;28;20348;-84
2021/05/25 08:30:12;;;;;;;;;;;10.80;96.20;;;;;;5030369;28;20292;-84
2021/05/25 08:32:38;;;;;;;;;;;10.90;96.10;;;;;;5030757;28;19952;-83
2021/05/25 08:35:04;;;;;;;;;;;10.90;96.00;;;;;;5031044;28;19910;-83
2021/05/25 08:37:32;;;;;;;;;;;11.00;95.90;;;;;;5030894;28;19913;-83
2021/05/25 08:39:57;;;;;;;;;;;11.00;96.00;;;;;;5031779;28;20365;-84
2021/05/25 08:42:23;;;;;;;;;;;11.00;95.40;;;;;;5030792;28;19916;-83
2021/05/25 08:44:48;;;;;;;;;;;11.00;95.70;;;;;;5030557;28;19924;-83
2021/05/25 08:47:14;;;;;;;;;;;11.10;95.90;;;;;;5030631;28;19909;-84
2021/05/25 08:49:40;;;;;;;;;;;11.20;96.20;;;;;;5029751;28;20374;-83
2021/05/25 08:52:06;;;;;;;;;;;11.30;95.90;;;;;;5030453;28;19913;-83
2021/05/25 08:54:32;;;;;;;;;;;11.30;95.70;;;;;;5030929;28;19913;-84
2021/05/25 08:56:58;;;;;;;;;;;11.30;95.60;;;;;;5030099;28;19913;-84
2021/05/25 08:59:24;;;;;;;;;;;11.30;95.30;;;;;;5030064;28;20281;-84
2021/05/25 09:01:50;;;;;;;;;;;11.40;95.50;;;;;;5030462;28;19913;-83
2021/05/25 09:04:17;;;;;;;;;;;11.40;95.40;;;;;;5031689;28;19913;-83
2021/05/25 09:06:44;;;;;;;;;;;11.50;95.70;;;;;;5032123;28;19917;-83
2021/05/25 09:09:11;;;;;;;;;;;11.60;95.50;;;;;;5029884;28;20333;-83
2021/05/25 09:11:55;;;;;;;;;;;11.70;95.30;;;;;;5031710;28;19910;-83
2021/05/25 09:14:21;;;;;;;;;;;11.80;94.50;;;;;;5030863;28;19916;-83
2021/05/25 09:16:46;;;;;;;;;;;11.90;94.60;;;;;;5031717;28;20000;-83
2021/05/25 09:19:12;;;;;;;;;;;11.90;94.50;;;;;;5029663;28;20017;-83
2021/05/25 09:21:37;;;;;;;;;;;11.80;94.90;;;;;;5031559;28;20262;-83
2021/05/25 09:24:03;;;;;;;;;;;11.80;94.90;;;;;;5031371;28;19917;-84
2021/05/25 09:26:48;;;;;;;;;;;11.90;95.00;;;;;;5030344;28;19913;-84
2021/05/25 09:29:15;;;;;;;;;;;11.90;95.30;;;;;;5029737;28;20278;-83
2021/05/25 09:31:45;;;;;;;;;;;11.90;95.30;;;;;;5030005;28;19910;-84
2021/05/25 09:34:12;;;;;;;;;;;11.90;95.30;;;;;;5030087;28;20004;-83
2021/05/25 09:36:56;;;;;;;;;;;11.80;95.00;;;;;;5029892;28;19998;-84
2021/05/25 09:39:22;;;;;;;;;;;11.80;95.10;;;;;;5029392;28;20224;-83
2021/05/25 09:41:58;;;;;;;;;;;11.80;95.10;;;;;;5031325;28;20346;-83
2021/05/25 09:44:23;;;;;;;;;;;11.80;95.70;;;;;;5029831;28;19914;-84
2021/05/25 09:46:49;;;;;;;;;;;11.80;95.60;;;;;;5031292;28;20266;-84
2021/05/25 09:49:14;;;;;;;;;;;11.90;95.30;;;;;;5030508;28;19910;-84
2021/05/25 09:51:40;;;;;;;;;;;12.00;95.80;;;;;;5029927;28;20434;-83
2021/05/25 09:54:17;;;;;;;;;;;12.20;94.70;;;;;;5030328;28;19924;-85
2021/05/25 09:56:54;;;;;;;;;;;12.20;94.10;;;;;;5029750;28;19916;-84
2021/05/25 09:59:27;;;;;;;;;;;12.30;94.20;;;;;;5029575;28;19994;-83
2021/05/25 10:01:52;;;;;;;;;;;12.10;94.90;;;;;;5030578;28;19925;-82
2021/05/25 10:04:18;;;;;;;;;;;12.00;93.80;;;;;;5029446;28;19917;-83
2021/05/25 10:06:45;;;;;;;;;;;11.70;93.80;;;;;;5030425;28;20353;-84
2021/05/25 10:09:11;;;;;;;;;;;11.70;93.90;;;;;;5028421;28;20404;-84
2021/05/25 10:11:41;;;;;;;;;;;11.80;94.40;;;;;;5029268;28;19954;-83
2021/05/25 10:14:08;;;;;;;;;;;11.90;94.20;;;;;;5029504;28;19916;-83
2021/05/25 10:16:37;;;;;;;;;;;12.00;94.10;;;;;;5030952;28;20343;-84
2021/05/25 10:19:24;;;;;;;;;;;12.00;94.20;;;;;;5028844;28;19909;-84
2021/05/25 10:21:48;;;;;;;;;;;12.00;94.50;;;;;;5030527;28;20381;-84
2021/05/25 10:24:15;;;;;;;;;;;12.00;94.20;;;;;;5030701;28;20331;-83
2021/05/25 10:26:40;;;;;;;;;;;11.90;94.60;;;;;;5029132;28;19917;-83
2021/05/25 10:29:06;;;;;;;;;;;11.90;94.70;;;;;;5028903;28;20281;-84
2021/05/25 10:31:35;;;;;;;;;;;11.90;94.70;;;;;;5028727;28;20000;-84
2021/05/25 10:34:10;;;;;;;;;;;11.90;94.80;;;;;;5030677;28;19954;-83
2021/05/25 10:36:54;;;;;;;;;;;11.90;94.90;;;;;;5029330;28;20004;-83
2021/05/25 10:39:32;;;;;;;;;;;11.90;95.20;;;;;;5030081;28;20266;-83
2021/05/25 10:42:13;;;;;;;;;;;11.90;95.20;;;;;;5029003;28;19909;-84
2021/05/25 10:44:45;;;;;;;;;;;11.90;95.10;;;;;;5029016;28;19917;-84
2021/05/25 10:47:19;;;;;;;;;;;12.00;95.90;;;;;;5029099;28;20004;-83
2021/05/25 10:49:52;;;;;;;;;;;12.00;96.00;;;;;;5028021;28;19945;-84
2021/05/25 10:52:18;;;;;;;;;;;12.10;95.80;;;;;;5030250;28;20000;-83
2021/05/25 10:54:45;;;;;;;;;;;12.10;95.10;;;;;;5028990;28;20009;-84
2021/05/25 10:57:29;;;;;;;;;;;12.10;95.80;;;;;;5029912;28;20393;-83
2021/05/25 11:00:14;;;;;;;;;;;12.10;96.20;;;;;;5028162;28;19960;-84
2021/05/25 11:02:44;;;;;;;;;;;11.80;98.10;;;;;;5028722;28;20379;-84
2021/05/25 11:05:29;;;;;;;;;;;11.30;99.10;;;;;;5028780;28;19909;-84
2021/05/25 11:07:55;;;;;;;;;;;11.10;99.90;;;;;;5028720;28;19948;-84
2021/05/25 11:10:26;;;;;;;;;;;10.90;99.90;;;;;;5028151;28;19909;-84
2021/05/25 11:13:10;;;;;;;;;;;10.90;99.90;;;;;;5029880;28;19925;-83
2021/05/25 11:15:56;;;;;;;;;;;10.80;99.90;;;;;;5028532;28;19931;-83
2021/05/25 11:18:25;;;;;;;;;;;10.80;99.90;;;;;;5028164;28;20050;-84
2021/05/25 11:21:07;;;;;;;;;;;10.80;99.90;;;;;;5027868;28;19910;-83
2021/05/25 11:23:42;;;;;;;;;;;10.80;99.90;;;;;;5028296;28;20007;-83
2021/05/25 11:26:08;;;;;;;;;;;10.70;99.90;;;;;;5028345;28;19913;-83
2021/05/25 11:28:52;;;;;;;;;;;10.70;99.90;;;;;;5030131;28;19909;-84
2021/05/25 11:31:39;;;;;;;;;;;10.70;99.90;;;;;;5028202;28;20309;-84
2021/05/25 11:34:05;;;;;;;;;;;10.90;99.90;;;;;;5029963;28;20381;-83
2021/05/25 11:36:31;;;;;;;;;;;11.00;99.90;;;;;;5029257;28;19916;-83
2021/05/25 11:38:56;;;;;;;;;;;11.10;99.90;;;;;;5030624;28;20282;-83
2021/05/25 11:41:22;;;;;;;;;;;11.10;99.90;;;;;;5030355;28;19920;-83
2021/05/25 11:43:47;;;;;;;;;;;11.20;99.90;;;;;;5030526;28;19913;-82
2021/05/25 11:46:13;;;;;;;;;;;11.30;99.90;;;;;;5030567;28;19910;-82
2021/05/25 11:48:38;;;;;;;;;;;11.40;99.90;;;;;;5033280;28;19909;-82
2021/05/25 11:51:10;;;;;;;;;;;11.50;99.90;;;;;;5031126;28;19916;-82
2021/05/25 11:53:39;;;;;;;;;;;11.50;99.90;;;;;;5031998;28;20369;-82
2021/05/25 11:56:10;;;;;;;;;;;11.60;99.90;;;;;;5031564;28;19909;-83
2021/05/25 11:58:35;;;;;;;;;;;11.70;99.90;;;;;;5032117;28;19949;-83
2021/05/25 12:01:02;;;;;;;;;;;11.80;99.90;;;;;;5031702;28;19917;-84
2021/05/25 12:03:36;;;;;;;;;;;11.80;99.90;;;;;;5030848;28;19920;-84
2021/05/25 12:06:02;;;;;;;;;;;11.90;99.90;;;;;;5031249;28;19909;-83
2021/05/25 12:08:28;;;;;;;;;;;12.00;99.90;;;;;;5032340;28;20327;-83
2021/05/25 12:10:54;;;;;;;;;;;12.10;99.90;;;;;;5030749;28;19909;-82
2021/05/25 12:13:20;;;;;;;;;;;12.10;99.70;;;;;;5030596;28;19961;-84
2021/05/25 12:15:50;;;;;;;;;;;12.20;99.80;;;;;;5032701;28;19932;-83
2021/05/25 12:18:20;;;;;;;;;;;12.10;99.60;;;;;;5031966;28;19910;-84
2021/05/25 12:20:49;;;;;;;;;;;12.10;99.80;;;;;;5030725;28;20366;-83
2021/05/25 12:23:16;;;;;;;;;;;11.90;99.40;;;;;;5030444;28;19917;-83
2021/05/25 12:25:42;;;;;;;;;;;11.50;98.80;;;;;;5032173;28;20517;-82
2021/05/25 12:28:09;;;;;;;;;;;11.30;98.70;;;;;;5031089;28;19916;-83
2021/05/25 12:30:36;;;;;;;;;;;11.00;98.90;;;;;;5031614;28;19909;-84
2021/05/25 12:33:02;;;;;;;;;;;10.90;99.40;;;;;;5034815;28;20281;-82
2021/05/25 12:35:28;;;;;;;;;;;10.70;99.50;;;;;;5033399;28;19909;-83
2021/05/25 12:38:08;;;;;;;;;;;10.70;99.90;;;;;;5033169;28;19916;-83
2021/05/25 12:40:34;;;;;;;;;;;10.70;99.90;;;;;;5033736;28;19909;-82
2021/05/25 12:43:13;;;;;;;;;;;10.70;99.90;;;;;;5033144;28;19909;-82
2021/05/25 12:45:40;;;;;;;;;;;10.60;99.90;;;;;;5033140;28;19913;-82
2021/05/25 12:48:05;;;;;;;;;;;10.70;99.90;;;;;;5033873;28;19940;-82
2021/05/25 12:50:37;;;;;;;;;;;10.80;99.90;;;;;;5034188;28;19910;-82
2021/05/25 12:53:21;;;;;;;;;;;10.80;99.90;;;;;;5033384;28;20281;-83
2021/05/25 12:55:52;;;;;;;;;;;10.80;99.80;;;;;;5035587;28;20400;-83
2021/05/25 12:58:37;;;;;;;;;;;10.90;99.90;;;;;;5033646;28;19909;-82
2021/05/25 13:01:22;;;;;;;;;;;11.00;99.90;;;;;;5032366;28;19913;-83
2021/05/25 13:03:49;;;;;;;;;;;11.00;99.60;;;;;;5033338;28;20302;-82
2021/05/25 13:06:29;;;;;;;;;;;11.10;99.90;;;;;;5034271;28;19909;-82
2021/05/25 13:11:58;;;;;;;;;;;11.10;99.40;;;;;;5034199;28;19909;-82
2021/05/25 13:14:24;;;;;;;;;;;11.20;99.20;;;;;;5033314;28;19923;-83
2021/05/25 13:17:13;;;;;;;;;;;11.10;97.80;;;;;;5034775;28;19909;-82
2021/05/25 13:19:40;;;;;;;;;;;11.10;98.30;;;;;;5024996;28;19914;-82
2021/05/25 13:22:09;;;;;;;;;;;11.10;98.80;;;;;;5032393;28;20015;-82
2021/05/25 13:24:37;;;;;;;;;;;11.10;99.30;;;;;;5033240;28;19965;-83
2021/05/25 13:27:18;;;;;;;;;;;11.10;99.20;;;;;;5032552;28;19996;-82
2021/05/25 13:29:53;;;;;;;;;;;11.10;99.70;;;;;;5031921;28;20293;-82
2021/05/25 13:32:18;;;;;;;;;;;11.10;99.30;;;;;;5032320;28;19977;-82
2021/05/25 13:34:44;;;;;;;;;;;11.10;99.30;;;;;;5034366;28;20357;-82
2021/05/25 13:37:09;;;;;;;;;;;11.10;98.70;;;;;;5032547;28;19921;-82
2021/05/25 13:39:35;;;;;;;;;;;11.20;99.00;;;;;;5032115;28;20258;-82
2021/05/25 13:42:01;;;;;;;;;;;11.10;97.70;;;;;;5032424;28;19909;-82
2021/05/25 13:44:26;;;;;;;;;;;11.20;97.60;;;;;;5032422;28;20285;-82
2021/05/25 13:46:52;;;;;;;;;;;11.30;98.20;;;;;;5034166;28;19910;-83
2021/05/25 13:49:17;;;;;;;;;;;11.40;97.90;;;;;;5032431;28;19957;-82
2021/05/25 13:51:44;;;;;;;;;;;11.50;98.00;;;;;;5032280;28;19913;-82
2021/05/25 13:54:10;;;;;;;;;;;11.60;97.80;;;;;;5032687;28;19909;-82
2021/05/25 13:59:08;;;;;;;;;;;11.90;96.70;;;;;;5033097;28;19909;-82
2021/05/25 14:01:34;;;;;;;;;;;12.00;96.60;;;;;;5032269;28;19920;-83
2021/05/25 14:04:03;;;;;;;;;;;12.10;97.30;;;;;;5032450;28;19914;-82
2021/05/25 14:06:28;;;;;;;;;;;12.20;95.50;;;;;;5033766;28;19913;-84
2021/05/25 14:08:54;;;;;;;;;;;12.30;95.50;;;;;;5031786;28;19909;-84
2021/05/25 14:11:22;;;;;;;;;;;12.30;94.80;;;;;;5032057;28;20331;-82
2021/05/25 14:13:48;;;;;;;;;;;12.30;95.50;;;;;;5032885;28;20337;-82
2021/05/25 14:16:14;;;;;;;;;;;12.20;94.00;;;;;;5032208;28;19960;-82
2021/05/25 14:18:41;;;;;;;;;;;12.20;94.30;;;;;;5031863;28;19919;-83
2021/05/25 14:21:07;;;;;;;;;;;12.20;93.30;;;;;;5031436;28;20393;-82
2021/05/25 14:23:33;;;;;;;;;;;12.20;93.30;;;;;;5031363;28;19964;-81
2021/05/25 14:26:01;;;;;;;;;;;12.20;93.60;;;;;;5033265;28;19924;-83
2021/05/25 14:28:26;;;;;;;;;;;12.30;94.20;;;;;;5031565;28;20270;-84